Time;durP1;ratioP1;P1;durP2;ratioP2;P2;SDS_P1;SDS_P2;PMS_P1;PMS_P2;Temp;Humidity;BMP_temperature;BMP_pressure;BME280_temperature;BME280_humidity;BME280_pressure;Samples;Min_cycle;Max_cycle;Signal;HPM_P1;HPM_P2
2022/09/27 00:01:25;;;;;;;;;;;10.90;99.90;;;;;;5063250;28;19959;-73
2022/09/27 00:03:54;;;;;;;;;;;10.80;99.90;;;;;;5063263;28;19946;-71
2022/09/27 00:06:22;;;;;;;;;;;10.80;99.90;;;;;;5062716;28;20234;-72
2022/09/27 00:08:49;;;;;;;;;;;10.70;99.90;;;;;;5070359;28;19928;-73
2022/09/27 00:11:19;;;;;;;;;;;10.80;99.90;;;;;;5070454;28;19959;-72
2022/09/27 00:13:47;;;;;;;;;;;10.70;99.90;;;;;;5063017;28;19948;-71
2022/09/27 00:16:14;;;;;;;;;;;10.70;99.90;;;;;;5062672;28;20235;-73
2022/09/27 00:18:40;;;;;;;;;;;10.70;99.90;;;;;;5067016;28;19955;-72
2022/09/27 00:21:07;;;;;;;;;;;10.60;99.90;;;;;;5066860;28;19969;-73
2022/09/27 00:23:34;;;;;;;;;;;10.60;99.90;;;;;;5064181;28;20105;-72
2022/09/27 00:26:01;;;;;;;;;;;10.70;99.90;;;;;;5060230;28;20096;-71
2022/09/27 00:28:28;;;;;;;;;;;10.60;99.90;;;;;;5067025;28;19921;-73
2022/09/27 00:30:56;;;;;;;;;;;10.60;99.90;;;;;;5066953;28;19963;-72
2022/09/27 00:33:23;;;;;;;;;;;10.60;99.90;;;;;;5066804;28;19956;-71
2022/09/27 00:35:50;;;;;;;;;;;10.60;99.90;;;;;;5066288;28;19921;-72
2022/09/27 00:38:16;;;;;;;;;;;10.50;99.90;;;;;;5078650;28;19928;-71
2022/09/27 00:40:43;;;;;;;;;;;10.50;99.90;;;;;;5086872;28;19920;-73
2022/09/27 00:43:15;;;;;;;;;;;10.50;99.90;;;;;;5086584;28;20003;-74
2022/09/27 00:45:42;;;;;;;;;;;10.50;99.90;;;;;;5086303;28;19920;-72
2022/09/27 00:48:13;;;;;;;;;;;10.40;99.90;;;;;;5086513;28;19920;-73
2022/09/27 00:50:42;;;;;;;;;;;10.50;99.90;;;;;;5086371;28;19955;-74
2022/09/27 00:53:11;;;;;;;;;;;10.40;99.90;;;;;;5067163;28;19921;-73
2022/09/27 00:55:40;;;;;;;;;;;10.30;99.90;;;;;;5066252;28;19947;-72
2022/09/27 00:58:07;;;;;;;;;;;10.30;99.90;;;;;;5066372;28;19921;-72
2022/09/27 01:00:33;;;;;;;;;;;10.30;99.90;;;;;;5066169;28;19927;-71
2022/09/27 01:03:01;;;;;;;;;;;10.30;99.90;;;;;;5065907;28;19921;-73
2022/09/27 01:05:29;;;;;;;;;;;10.30;99.90;;;;;;5065969;28;19952;-72
2022/09/27 01:07:59;;;;;;;;;;;10.20;99.90;;;;;;5067366;28;19920;-72
2022/09/27 01:10:28;;;;;;;;;;;10.20;99.90;;;;;;5070331;28;19920;-72
2022/09/27 01:12:59;;;;;;;;;;;10.20;99.90;;;;;;5086170;28;19920;-73
2022/09/27 01:15:29;;;;;;;;;;;10.10;99.90;;;;;;5085585;28;19920;-72
2022/09/27 01:18:08;;;;;;;;;;;10.10;99.90;;;;;;5085624;28;19920;-72
2022/09/27 01:20:46;;;;;;;;;;;10.10;99.90;;;;;;5085951;28;19983;-72
2022/09/27 01:23:28;;;;;;;;;;;10.10;99.90;;;;;;5081471;28;19928;-73
2022/09/27 01:26:02;;;;;;;;;;;10.00;99.90;;;;;;5063442;28;19964;-74
2022/09/27 01:28:37;;;;;;;;;;;10.10;99.90;;;;;;5065210;28;19921;-72
2022/09/27 01:31:09;;;;;;;;;;;10.00;99.90;;;;;;5067099;28;19921;-72
2022/09/27 01:33:41;;;;;;;;;;;10.10;99.90;;;;;;5067132;28;19920;-72
2022/09/27 01:36:14;;;;;;;;;;;10.00;99.90;;;;;;5065075;28;19928;-72
2022/09/27 01:38:44;;;;;;;;;;;10.00;99.90;;;;;;5065320;28;19971;-72
2022/09/27 01:41:18;;;;;;;;;;;9.90;99.90;;;;;;5065789;28;19963;-73
2022/09/27 01:43:48;;;;;;;;;;;10.00;99.90;;;;;;5065528;28;19928;-72
2022/09/27 01:46:20;;;;;;;;;;;9.90;99.90;;;;;;5065174;28;19964;-73
2022/09/27 01:48:49;;;;;;;;;;;10.00;99.90;;;;;;5056657;28;19921;-72
2022/09/27 01:51:17;;;;;;;;;;;10.00;99.90;;;;;;5059534;28;20251;-72
2022/09/27 01:53:46;;;;;;;;;;;9.90;99.90;;;;;;5065156;28;19952;-73
2022/09/27 01:56:16;;;;;;;;;;;9.90;99.90;;;;;;5060577;28;19928;-72
2022/09/27 01:58:45;;;;;;;;;;;9.90;99.90;;;;;;5065284;28;19921;-73
2022/09/27 02:01:13;;;;;;;;;;;10.00;99.90;;;;;;5064953;28;19921;-72
2022/09/27 02:03:44;;;;;;;;;;;10.00;99.90;;;;;;5065131;28;20211;-72
2022/09/27 02:06:12;;;;;;;;;;;10.00;99.90;;;;;;5064679;28;19924;-72
2022/09/27 02:08:41;;;;;;;;;;;10.00;99.90;;;;;;5065145;28;19932;-72
2022/09/27 02:11:09;;;;;;;;;;;10.00;99.90;;;;;;5063531;28;19999;-73
2022/09/27 02:13:40;;;;;;;;;;;9.90;99.90;;;;;;5064615;28;19921;-73
2022/09/27 02:16:11;;;;;;;;;;;9.90;99.90;;;;;;5064342;28;19920;-72
2022/09/27 02:18:44;;;;;;;;;;;9.90;99.90;;;;;;5064398;28;20098;-71
2022/09/27 02:21:14;;;;;;;;;;;9.90;99.90;;;;;;5065077;28;19921;-72
2022/09/27 02:23:43;;;;;;;;;;;9.90;99.90;;;;;;5063985;28;19920;-71
2022/09/27 02:26:13;;;;;;;;;;;9.90;99.90;;;;;;5050661;28;19921;-72
2022/09/27 02:28:44;;;;;;;;;;;9.90;99.90;;;;;;5064064;28;20209;-71
2022/09/27 02:31:11;;;;;;;;;;;9.90;99.90;;;;;;5064656;28;19952;-73
2022/09/27 02:33:41;;;;;;;;;;;9.90;99.90;;;;;;5064360;28;19920;-72
2022/09/27 02:36:08;;;;;;;;;;;9.90;99.90;;;;;;5064352;28;19963;-73
2022/09/27 02:38:36;;;;;;;;;;;9.90;99.90;;;;;;5064186;28;20212;-72
2022/09/27 02:41:03;;;;;;;;;;;9.90;99.90;;;;;;5063728;28;20239;-72
2022/09/27 02:43:32;;;;;;;;;;;9.80;99.90;;;;;;5064554;28;19928;-76
2022/09/27 02:46:07;;;;;;;;;;;9.80;99.90;;;;;;5064092;28;20131;-76
2022/09/27 02:48:39;;;;;;;;;;;9.80;99.90;;;;;;5064253;28;19921;-76
2022/09/27 02:51:30;;;;;;;;;;;9.90;99.90;;;;;;5064626;28;19958;-75
2022/09/27 02:54:04;;;;;;;;;;;9.80;99.90;;;;;;5049610;28;19928;-75
2022/09/27 02:56:35;;;;;;;;;;;9.80;99.90;;;;;;5063919;28;19921;-76
2022/09/27 02:59:05;;;;;;;;;;;9.80;99.90;;;;;;5064253;28;20224;-74
2022/09/27 03:01:34;;;;;;;;;;;9.80;99.90;;;;;;5064146;28;19921;-75
2022/09/27 03:04:03;;;;;;;;;;;9.80;99.90;;;;;;5063866;28;19943;-75
2022/09/27 03:06:32;;;;;;;;;;;9.80;99.90;;;;;;5079226;28;19921;-75
2022/09/27 03:08:58;;;;;;;;;;;9.70;99.90;;;;;;5083878;28;20200;-76
2022/09/27 03:11:27;;;;;;;;;;;9.70;99.90;;;;;;5083745;28;19921;-76
2022/09/27 03:13:53;;;;;;;;;;;9.80;99.90;;;;;;5083676;28;19924;-75
2022/09/27 03:16:20;;;;;;;;;;;9.70;99.90;;;;;;5083232;28;19928;-74
2022/09/27 03:18:46;;;;;;;;;;;9.70;99.90;;;;;;5082348;28;19951;-75
2022/09/27 03:21:13;;;;;;;;;;;9.80;99.90;;;;;;5063694;28;19921;-76
2022/09/27 03:23:40;;;;;;;;;;;9.70;99.90;;;;;;5063732;28;19928;-73
2022/09/27 03:26:06;;;;;;;;;;;9.60;99.90;;;;;;5063232;28;20239;-76
2022/09/27 03:28:35;;;;;;;;;;;9.70;99.90;;;;;;5063505;28;20247;-76
2022/09/27 03:31:01;;;;;;;;;;;9.70;99.90;;;;;;5063330;28;19925;-76
2022/09/27 03:33:28;;;;;;;;;;;9.70;99.90;;;;;;5062848;28;19921;-74
2022/09/27 03:35:55;;;;;;;;;;;9.60;99.90;;;;;;5062923;28;19928;-75
2022/09/27 03:38:22;;;;;;;;;;;9.70;99.90;;;;;;5063143;28;20213;-76
2022/09/27 03:40:48;;;;;;;;;;;9.70;99.90;;;;;;5057540;28;20200;-75
2022/09/27 03:43:15;;;;;;;;;;;9.70;99.90;;;;;;5062948;28;20120;-74
2022/09/27 03:45:44;;;;;;;;;;;9.70;99.90;;;;;;5062841;28;19952;-75
2022/09/27 03:48:11;;;;;;;;;;;9.70;99.90;;;;;;5069233;28;19920;-74
2022/09/27 03:50:38;;;;;;;;;;;9.70;99.90;;;;;;5064438;28;19952;-75
2022/09/27 03:53:05;;;;;;;;;;;9.70;99.90;;;;;;5062999;28;19920;-76
2022/09/27 03:55:31;;;;;;;;;;;9.70;99.90;;;;;;5062722;28;20094;-75
2022/09/27 03:57:58;;;;;;;;;;;9.70;99.90;;;;;;5062879;28;19988;-75
2022/09/27 04:00:25;;;;;;;;;;;9.70;99.90;;;;;;5062960;28;19921;-72
2022/09/27 04:02:53;;;;;;;;;;;9.70;99.90;;;;;;5062836;28;19928;-74
2022/09/27 04:05:19;;;;;;;;;;;9.70;99.90;;;;;;5073553;28;20116;-75
2022/09/27 04:07:48;;;;;;;;;;;9.70;99.90;;;;;;5083129;28;19920;-75
2022/09/27 04:10:15;;;;;;;;;;;9.70;99.90;;;;;;5083041;28;19963;-75
2022/09/27 04:12:41;;;;;;;;;;;9.70;99.90;;;;;;5066008;28;20143;-74
2022/09/27 04:15:09;;;;;;;;;;;9.70;99.90;;;;;;5062669;28;20124;-75
2022/09/27 04:17:35;;;;;;;;;;;9.60;99.90;;;;;;5062484;28;19921;-74
2022/09/27 04:20:04;;;;;;;;;;;9.50;99.90;;;;;;5055362;28;19960;-75
2022/09/27 04:22:31;;;;;;;;;;;9.50;99.90;;;;;;5059976;28;19921;-75
2022/09/27 04:24:57;;;;;;;;;;;9.50;99.90;;;;;;5062652;28;19928;-75
2022/09/27 04:27:24;;;;;;;;;;;9.40;99.90;;;;;;5062990;28;20200;-74
2022/09/27 04:29:51;;;;;;;;;;;9.40;99.90;;;;;;5063119;28;19921;-76
2022/09/27 04:32:20;;;;;;;;;;;9.40;99.90;;;;;;5062480;28;20337;-75
2022/09/27 04:37:32;;;;;;;;;;;9.30;99.90;;;;;;5063191;28;19923;-75
2022/09/27 04:39:58;;;;;;;;;;;9.30;99.90;;;;;;5063294;28;20112;-76
2022/09/27 04:42:25;;;;;;;;;;;9.30;99.90;;;;;;5063322;28;19921;-75
2022/09/27 04:44:52;;;;;;;;;;;9.30;99.90;;;;;;5062359;28;19924;-73
2022/09/27 04:47:20;;;;;;;;;;;9.20;99.90;;;;;;5063456;28;20101;-75
2022/09/27 04:49:46;;;;;;;;;;;9.20;99.90;;;;;;5063149;28;19929;-74
2022/09/27 04:52:14;;;;;;;;;;;9.20;99.90;;;;;;5063250;28;19928;-76
2022/09/27 04:54:42;;;;;;;;;;;9.30;99.90;;;;;;5061978;28;20224;-74
2022/09/27 04:57:11;;;;;;;;;;;9.20;99.90;;;;;;5062684;28;19921;-73
2022/09/27 04:59:39;;;;;;;;;;;9.20;99.90;;;;;;5063142;28;19925;-75
2022/09/27 05:02:06;;;;;;;;;;;9.20;99.90;;;;;;5062869;28;19920;-76
2022/09/27 05:04:32;;;;;;;;;;;9.20;99.90;;;;;;5065751;28;20284;-75
2022/09/27 05:06:59;;;;;;;;;;;9.20;99.90;;;;;;5067320;28;20108;-74
2022/09/27 05:09:26;;;;;;;;;;;9.20;99.90;;;;;;5066251;28;19920;-75
2022/09/27 05:11:54;;;;;;;;;;;9.20;99.90;;;;;;5066454;28;19956;-76
2022/09/27 05:14:20;;;;;;;;;;;9.20;99.90;;;;;;5065977;28;19944;-75
2022/09/27 05:16:47;;;;;;;;;;;9.10;99.90;;;;;;5048548;28;19921;-74
2022/09/27 05:19:14;;;;;;;;;;;9.10;99.90;;;;;;5061789;28;19921;-75
2022/09/27 05:21:42;;;;;;;;;;;9.10;99.90;;;;;;5065949;28;19963;-73
2022/09/27 05:24:08;;;;;;;;;;;9.20;99.90;;;;;;5065590;28;19921;-72
2022/09/27 05:26:36;;;;;;;;;;;9.20;99.90;;;;;;5065047;28;19928;-74
2022/09/27 05:29:04;;;;;;;;;;;9.10;99.90;;;;;;5066186;28;19996;-70
2022/09/27 05:31:30;;;;;;;;;;;9.10;99.90;;;;;;5080677;28;20046;-75
2022/09/27 05:34:00;;;;;;;;;;;9.10;99.90;;;;;;5086022;28;19927;-75
2022/09/27 05:36:27;;;;;;;;;;;9.10;99.90;;;;;;5086048;28;20124;-75
2022/09/27 05:38:54;;;;;;;;;;;9.10;99.90;;;;;;5086420;28;19927;-72
2022/09/27 05:41:20;;;;;;;;;;;9.10;99.90;;;;;;5086173;28;19921;-74
2022/09/27 05:43:47;;;;;;;;;;;9.10;99.90;;;;;;5085592;28;19927;-73
2022/09/27 05:46:15;;;;;;;;;;;9.20;99.90;;;;;;5066113;28;19921;-74
2022/09/27 05:48:42;;;;;;;;;;;9.10;99.90;;;;;;5065796;28;19955;-73
2022/09/27 05:51:09;;;;;;;;;;;9.10;99.90;;;;;;5065541;28;19921;-74
2022/09/27 05:53:36;;;;;;;;;;;9.10;99.90;;;;;;5065791;28;19971;-73
2022/09/27 05:56:04;;;;;;;;;;;9.10;99.90;;;;;;5065665;28;19920;-75
2022/09/27 05:58:31;;;;;;;;;;;9.10;99.90;;;;;;5065719;28;19966;-75
2022/09/27 06:00:58;;;;;;;;;;;9.00;99.90;;;;;;5065546;28;20124;-76
2022/09/27 06:03:26;;;;;;;;;;;9.00;99.90;;;;;;5065628;28;19927;-74
2022/09/27 06:05:52;;;;;;;;;;;9.10;99.90;;;;;;5065377;28;20204;-73
2022/09/27 06:08:20;;;;;;;;;;;9.10;99.90;;;;;;5064954;28;19921;-76
2022/09/27 06:10:47;;;;;;;;;;;9.00;99.90;;;;;;5065613;28;20089;-76
2022/09/27 06:13:15;;;;;;;;;;;9.10;99.90;;;;;;5065392;28;19921;-76
2022/09/27 06:15:42;;;;;;;;;;;9.00;99.90;;;;;;5064255;28;19927;-76
2022/09/27 06:18:10;;;;;;;;;;;9.00;99.90;;;;;;5065539;28;19921;-76
2022/09/27 06:20:38;;;;;;;;;;;9.00;99.90;;;;;;5065410;28;19921;-76
2022/09/27 06:23:06;;;;;;;;;;;8.90;99.90;;;;;;5065317;28;19920;-76
2022/09/27 06:25:33;;;;;;;;;;;8.90;99.90;;;;;;5065246;28;19920;-76
2022/09/27 06:27:59;;;;;;;;;;;8.90;99.90;;;;;;5065030;28;20233;-75
2022/09/27 06:30:27;;;;;;;;;;;8.90;99.90;;;;;;5064933;28;19927;-76
2022/09/27 06:32:57;;;;;;;;;;;8.90;99.90;;;;;;5065651;28;19953;-75
2022/09/27 06:35:24;;;;;;;;;;;8.90;99.90;;;;;;5064876;28;20165;-76
2022/09/27 06:37:52;;;;;;;;;;;8.90;99.90;;;;;;5065262;28;19959;-76
2022/09/27 06:40:19;;;;;;;;;;;8.90;99.90;;;;;;5065787;28;19928;-76
2022/09/27 06:42:46;;;;;;;;;;;8.90;99.90;;;;;;5074955;28;19921;-75
2022/09/27 06:45:13;;;;;;;;;;;8.90;99.90;;;;;;5074086;28;19977;-75
2022/09/27 06:47:39;;;;;;;;;;;8.90;99.90;;;;;;5064663;28;19921;-76
2022/09/27 06:50:06;;;;;;;;;;;8.90;99.90;;;;;;5064876;28;19932;-75
2022/09/27 06:52:33;;;;;;;;;;;8.90;99.90;;;;;;5064904;28;19928;-77
2022/09/27 06:55:02;;;;;;;;;;;8.90;99.90;;;;;;5064738;28;19935;-76
2022/09/27 07:00:25;;;;;;;;;;;8.90;99.90;;;;;;5064590;28;19923;-75
2022/09/27 07:02:52;;;;;;;;;;;8.90;99.90;;;;;;5064101;28;19944;-75
2022/09/27 07:05:19;;;;;;;;;;;8.90;99.90;;;;;;5064406;28;19927;-78
2022/09/27 07:07:46;;;;;;;;;;;9.00;99.90;;;;;;5065199;28;19925;-77
2022/09/27 07:10:15;;;;;;;;;;;9.00;99.90;;;;;;5065254;28;20251;-77
2022/09/27 07:12:46;;;;;;;;;;;9.00;99.90;;;;;;5045300;28;19921;-78
2022/09/27 07:15:12;;;;;;;;;;;9.00;99.90;;;;;;5045423;28;19921;-73
2022/09/27 07:17:39;;;;;;;;;;;9.00;99.90;;;;;;5065244;28;19921;-77
2022/09/27 07:20:06;;;;;;;;;;;9.10;99.90;;;;;;5064652;28;19920;-77
2022/09/27 07:22:39;;;;;;;;;;;9.10;99.90;;;;;;5064944;28;19928;-76
2022/09/27 07:25:05;;;;;;;;;;;9.10;99.90;;;;;;5064450;28;19921;-77
2022/09/27 07:27:33;;;;;;;;;;;9.10;99.90;;;;;;5064673;28;20255;-77
2022/09/27 07:30:00;;;;;;;;;;;9.10;99.90;;;;;;5064879;28;19924;-77
2022/09/27 07:32:27;;;;;;;;;;;9.20;99.90;;;;;;5065270;28;19948;-76
2022/09/27 07:34:53;;;;;;;;;;;9.30;99.90;;;;;;5064683;28;19921;-77
2022/09/27 07:37:20;;;;;;;;;;;9.40;99.90;;;;;;5064890;28;19928;-77
2022/09/27 07:39:47;;;;;;;;;;;9.40;99.90;;;;;;5064496;28;19921;-77
2022/09/27 07:42:13;;;;;;;;;;;9.40;99.90;;;;;;5064202;28;20208;-76
2022/09/27 07:44:41;;;;;;;;;;;9.50;99.90;;;;;;5064017;28;20112;-75
2022/09/27 07:47:09;;;;;;;;;;;9.50;99.90;;;;;;5064402;28;19921;-77
2022/09/27 07:49:36;;;;;;;;;;;9.50;99.90;;;;;;5064326;28;19921;-76
2022/09/27 07:52:03;;;;;;;;;;;9.50;99.90;;;;;;5064768;28;19921;-76
2022/09/27 07:54:29;;;;;;;;;;;9.50;99.90;;;;;;5064598;28;19927;-73
2022/09/27 07:56:56;;;;;;;;;;;9.60;99.90;;;;;;5064065;28;19921;-75
2022/09/27 07:59:23;;;;;;;;;;;9.50;99.90;;;;;;5064471;28;19956;-78
2022/09/27 08:01:51;;;;;;;;;;;9.50;99.90;;;;;;5064250;28;19928;-77
2022/09/27 08:04:17;;;;;;;;;;;9.50;99.90;;;;;;5064238;28;20208;-76
2022/09/27 08:06:44;;;;;;;;;;;9.40;99.90;;;;;;5064245;28;19952;-76
2022/09/27 08:09:11;;;;;;;;;;;9.40;99.90;;;;;;5064394;28;19920;-76
2022/09/27 08:11:37;;;;;;;;;;;9.30;99.90;;;;;;5064509;28;19921;-77
2022/09/27 08:14:10;;;;;;;;;;;9.30;99.90;;;;;;5063817;28;19928;-75
2022/09/27 08:16:37;;;;;;;;;;;9.20;99.90;;;;;;5064566;28;19927;-77
2022/09/27 08:19:05;;;;;;;;;;;9.20;99.90;;;;;;5064148;28;19951;-77
2022/09/27 08:21:32;;;;;;;;;;;9.20;99.90;;;;;;5064318;28;19943;-77
2022/09/27 08:24:00;;;;;;;;;;;9.10;99.90;;;;;;5045779;28;20141;-76
2022/09/27 08:26:27;;;;;;;;;;;9.10;99.90;;;;;;5043663;28;19995;-75
2022/09/27 08:28:54;;;;;;;;;;;9.10;99.90;;;;;;5043964;28;19921;-77
2022/09/27 08:31:22;;;;;;;;;;;9.10;99.90;;;;;;5044102;28;20126;-77
2022/09/27 08:33:58;;;;;;;;;;;9.00;99.90;;;;;;5043599;28;19921;-76
2022/09/27 08:36:27;;;;;;;;;;;9.00;99.90;;;;;;5044030;28;19921;-77
2022/09/27 08:38:57;;;;;;;;;;;9.10;99.90;;;;;;5047242;28;19984;-77
2022/09/27 08:41:29;;;;;;;;;;;9.10;99.90;;;;;;5059885;28;19959;-78
2022/09/27 08:44:04;;;;;;;;;;;9.20;99.90;;;;;;5104540;22;19940;-96
2022/09/27 08:46:38;;;;;;;;;;;9.30;99.90;;;;;;5091249;28;19913;-95
2022/09/27 08:49:06;;;;;;;;;;;9.30;99.90;;;;;;5087632;28;19920;-95
2022/09/27 08:51:35;;;;;;;;;;;9.30;99.90;;;;;;5101520;28;19908;-95
2022/09/27 08:54:06;;;;;;;;;;;9.30;99.90;;;;;;5101296;28;19921;-95
2022/09/27 08:56:33;;;;;;;;;;;9.30;99.90;;;;;;5100521;28;19909;-96
2022/09/27 08:59:04;;;;;;;;;;;9.30;99.90;;;;;;5101206;28;19921;-96
2022/09/27 09:01:31;;;;;;;;;;;9.30;99.90;;;;;;5101179;28;19916;-96
2022/09/27 09:04:00;;;;;;;;;;;9.30;99.90;;;;;;5101091;28;19912;-95
2022/09/27 09:06:28;;;;;;;;;;;9.20;99.90;;;;;;5099832;28;19931;-96
2022/09/27 09:09:02;;;;;;;;;;;9.30;99.90;;;;;;5099328;28;19943;-95
2022/09/27 09:14:36;;;;;;;;;;;9.30;99.90;;;;;;5100969;28;19927;-94
2022/09/27 09:17:08;;;;;;;;;;;9.30;99.90;;;;;;5100552;28;19919;-94
2022/09/27 09:19:41;;;;;;;;;;;9.40;99.90;;;;;;5101254;28;19917;-94
2022/09/27 09:22:17;;;;;;;;;;;9.50;99.90;;;;;;5109118;28;19920;-94
2022/09/27 09:24:54;;;;;;;;;;;9.50;99.90;;;;;;5099146;28;19913;-94
2022/09/27 09:27:25;;;;;;;;;;;9.60;99.90;;;;;;5100746;28;19920;-94
2022/09/27 09:29:59;;;;;;;;;;;9.60;99.90;;;;;;5100331;28;19951;-95
2022/09/27 09:32:29;;;;;;;;;;;9.60;99.90;;;;;;5100488;28;20182;-95
2022/09/27 09:34:59;;;;;;;;;;;9.60;99.90;;;;;;5098241;28;19920;-95
2022/09/27 09:37:30;;;;;;;;;;;9.60;99.90;;;;;;5106437;28;19919;-95
2022/09/27 09:40:00;;;;;;;;;;;9.70;99.90;;;;;;5114041;28;19908;-94
2022/09/27 09:42:30;;;;;;;;;;;9.60;99.90;;;;;;5100795;28;19909;-95
2022/09/27 09:44:58;;;;;;;;;;;9.60;99.90;;;;;;5099274;28;19942;-94
2022/09/27 09:47:28;;;;;;;;;;;9.60;99.90;;;;;;5100361;28;19912;-95
2022/09/27 09:49:57;;;;;;;;;;;9.60;99.90;;;;;;5099794;28;19920;-95
2022/09/27 09:52:26;;;;;;;;;;;9.60;99.90;;;;;;5100070;28;19972;-95
2022/09/27 09:54:56;;;;;;;;;;;9.50;99.90;;;;;;5099483;28;19928;-95
2022/09/27 09:57:28;;;;;;;;;;;9.60;99.90;;;;;;5100162;28;19920;-95
2022/09/27 09:59:59;;;;;;;;;;;9.60;99.90;;;;;;5099850;28;19913;-96
2022/09/27 10:02:30;;;;;;;;;;;9.70;99.90;;;;;;5100308;28;19931;-94
2022/09/27 10:04:56;;;;;;;;;;;9.70;99.90;;;;;;5099384;28;19923;-95
2022/09/27 10:07:24;;;;;;;;;;;9.60;99.90;;;;;;5100011;28;19913;-96
2022/09/27 10:09:51;;;;;;;;;;;9.70;99.90;;;;;;5099822;28;19909;-96
2022/09/27 10:12:18;;;;;;;;;;;9.60;99.90;;;;;;5099717;28;19919;-96
2022/09/27 10:14:47;;;;;;;;;;;9.60;99.90;;;;;;5099285;28;19912;-96
2022/09/27 10:17:15;;;;;;;;;;;9.50;99.90;;;;;;5099662;28;19924;-95
2022/09/27 10:19:42;;;;;;;;;;;9.40;99.90;;;;;;5099761;28;19935;-96
2022/09/27 10:22:14;;;;;;;;;;;9.40;99.90;;;;;;5099702;28;19909;-95
2022/09/27 10:24:52;;;;;;;;;;;9.40;99.90;;;;;;5099048;28;19920;-96
2022/09/27 10:27:19;;;;;;;;;;;9.40;99.90;;;;;;5099609;28;19927;-93
2022/09/27 10:29:55;;;;;;;;;;;9.30;99.90;;;;;;5099131;28;19919;-95
2022/09/27 10:32:26;;;;;;;;;;;9.30;99.90;;;;;;5099600;28;19912;-95
2022/09/27 10:34:52;;;;;;;;;;;9.30;99.90;;;;;;5098695;28;19920;-96
2022/09/27 10:37:21;;;;;;;;;;;9.40;99.90;;;;;;5099456;28;19930;-96
2022/09/27 10:39:49;;;;;;;;;;;9.50;99.90;;;;;;5099291;28;19909;-95
2022/09/27 10:42:30;;;;;;;;;;;9.60;99.90;;;;;;5099385;28;19962;-96
2022/09/27 10:44:58;;;;;;;;;;;9.70;99.90;;;;;;5094805;28;19931;-94
2022/09/27 10:47:25;;;;;;;;;;;9.70;99.90;;;;;;5105234;28;19919;-95
2022/09/27 10:50:02;;;;;;;;;;;9.70;99.90;;;;;;5103467;28;19988;-95
2022/09/27 10:52:28;;;;;;;;;;;9.80;99.90;;;;;;5098918;28;19923;-96
2022/09/27 10:54:56;;;;;;;;;;;9.90;99.90;;;;;;5098101;28;19928;-95
2022/09/27 10:57:24;;;;;;;;;;;9.90;99.90;;;;;;5090990;28;19921;-93
2022/09/27 10:59:52;;;;;;;;;;;10.00;99.90;;;;;;5099468;28;19920;-96
2022/09/27 11:02:21;;;;;;;;;;;10.10;99.90;;;;;;5094052;28;19913;-95
2022/09/27 11:05:02;;;;;;;;;;;10.10;99.90;;;;;;5097165;28;19916;-96
2022/09/27 11:07:29;;;;;;;;;;;10.10;99.90;;;;;;5097423;28;19913;-95
2022/09/27 11:10:01;;;;;;;;;;;10.20;99.90;;;;;;5097468;28;19921;-94
2022/09/27 11:12:29;;;;;;;;;;;10.20;99.90;;;;;;5097827;28;19959;-95
2022/09/27 11:14:57;;;;;;;;;;;10.20;99.90;;;;;;5096090;28;19916;-94
2022/09/27 11:17:31;;;;;;;;;;;10.30;99.90;;;;;;5096706;28;19908;-94
2022/09/27 11:20:06;;;;;;;;;;;10.40;99.90;;;;;;5095949;28;19915;-95
2022/09/27 11:22:41;;;;;;;;;;;10.40;99.90;;;;;;5095726;28;19966;-96
2022/09/27 11:25:13;;;;;;;;;;;10.30;99.90;;;;;;5096338;28;19916;-95
2022/09/27 11:27:45;;;;;;;;;;;10.30;99.90;;;;;;5096441;28;19920;-95
2022/09/27 11:30:15;;;;;;;;;;;10.20;99.90;;;;;;5097198;28;19928;-95
2022/09/27 11:32:54;;;;;;;;;;;10.20;99.90;;;;;;5110811;22;19917;-76
2022/09/27 11:35:26;;;;;;;;;;;10.20;99.90;;;;;;5104283;28;19935;-74
2022/09/27 11:38:00;;;;;;;;;;;10.20;99.90;;;;;;5103816;28;19920;-76
2022/09/27 11:40:31;;;;;;;;;;;10.30;99.90;;;;;;5103824;28;19920;-75
2022/09/27 11:43:05;;;;;;;;;;;10.50;99.90;;;;;;5092550;28;19920;-75
2022/09/27 11:45:40;;;;;;;;;;;10.50;99.90;;;;;;5081825;28;20238;-75
2022/09/27 11:48:15;;;;;;;;;;;10.40;99.90;;;;;;5105979;22;19965;-93
2022/09/27 11:50:48;;;;;;;;;;;10.40;99.90;;;;;;5118006;27;19941;-93
2022/09/27 11:53:20;;;;;;;;;;;10.40;99.90;;;;;;5118019;27;19966;-92
2022/09/27 11:55:51;;;;;;;;;;;10.50;99.90;;;;;;5115006;27;19927;-91
2022/09/27 11:58:25;;;;;;;;;;;10.50;99.90;;;;;;5118341;27;19912;-93
2022/09/27 12:00:58;;;;;;;;;;;10.30;99.90;;;;;;5118366;27;19912;-91
2022/09/27 12:03:45;;;;;;;;;;;10.20;99.90;;;;;;5118124;27;19928;-91
2022/09/27 12:06:13;;;;;;;;;;;9.20;99.90;;;;;;5115394;27;19928;-91
2022/09/27 12:08:46;;;;;;;;;;;9.90;99.90;;;;;;5116062;28;19971;-91
2022/09/27 12:11:17;;;;;;;;;;;9.70;99.90;;;;;;5117271;27;19927;-93
2022/09/27 12:13:46;;;;;;;;;;;9.60;99.90;;;;;;5116997;28;19939;-90
2022/09/27 12:16:15;;;;;;;;;;;9.60;99.90;;;;;;5117768;28;19919;-90
2022/09/27 12:18:46;;;;;;;;;;;9.60;99.90;;;;;;5118838;28;20223;-90
2022/09/27 12:21:13;;;;;;;;;;;9.70;99.90;;;;;;5117499;27;19931;-92
2022/09/27 12:23:41;;;;;;;;;;;9.80;99.90;;;;;;5115133;27;19919;-91
2022/09/27 12:26:10;;;;;;;;;;;9.80;99.90;;;;;;5101648;28;19920;-91
2022/09/27 12:28:39;;;;;;;;;;;9.90;99.90;;;;;;5103605;28;20011;-91
2022/09/27 12:31:09;;;;;;;;;;;9.90;99.90;;;;;;5119364;28;19920;-91
2022/09/27 12:33:39;;;;;;;;;;;9.90;99.90;;;;;;5119935;28;19908;-91
2022/09/27 12:36:10;;;;;;;;;;;10.00;99.90;;;;;;5120841;27;19936;-91
2022/09/27 12:38:39;;;;;;;;;;;10.00;99.90;;;;;;5120345;27;19992;-93
2022/09/27 12:41:07;;;;;;;;;;;10.10;99.90;;;;;;5121899;27;19920;-91
2022/09/27 12:43:34;;;;;;;;;;;10.10;99.90;;;;;;5121850;27;19915;-92
2022/09/27 12:46:08;;;;;;;;;;;10.20;99.90;;;;;;5121840;27;19915;-93
2022/09/27 12:48:41;;;;;;;;;;;10.30;99.90;;;;;;5122142;27;19920;-92
2022/09/27 12:51:10;;;;;;;;;;;10.30;99.90;;;;;;5121702;27;19920;-92
2022/09/27 12:53:46;;;;;;;;;;;10.30;99.90;;;;;;5106776;27;19920;-94
2022/09/27 12:56:22;;;;;;;;;;;10.20;99.90;;;;;;5120533;22;19921;-72
2022/09/27 12:59:03;;;;;;;;;;;10.20;99.90;;;;;;5063310;28;19921;-71
2022/09/27 13:01:45;;;;;;;;;;;10.10;99.90;;;;;;5062585;28;19921;-71
2022/09/27 13:04:26;;;;;;;;;;;10.10;99.90;;;;;;5046145;28;19992;-71
2022/09/27 13:07:09;;;;;;;;;;;10.00;99.90;;;;;;5050305;28;19920;-71
2022/09/27 13:09:57;;;;;;;;;;;10.00;99.90;;;;;;5065996;28;19928;-71
2022/09/27 13:12:26;;;;;;;;;;;10.00;99.90;;;;;;5103944;22;19913;-96
2022/09/27 13:14:58;;;;;;;;;;;10.00;99.90;;;;;;5099183;28;19981;-96
2022/09/27 13:17:32;;;;;;;;;;;10.00;99.90;;;;;;5099484;28;19921;-96
2022/09/27 13:19:59;;;;;;;;;;;10.10;99.90;;;;;;5080150;28;19968;-96
2022/09/27 13:22:41;;;;;;;;;;;10.10;99.90;;;;;;5070569;28;19913;-96
2022/09/27 13:25:23;;;;;;;;;;;10.10;99.90;;;;;;5077771;28;19913;-96
2022/09/27 13:27:51;;;;;;;;;;;10.10;99.90;;;;;;5079542;28;19929;-96
2022/09/27 13:30:43;;;;;;;;;;;10.30;99.90;;;;;;5079861;28;19920;-96
2022/09/27 13:33:33;;;;;;;;;;;10.10;99.90;;;;;;5064350;28;19943;-95
2022/09/27 13:36:07;;;;;;;;;;;10.10;99.90;;;;;;5079649;28;19937;-96
2022/09/27 13:38:34;;;;;;;;;;;10.10;99.90;;;;;;5079402;28;19939;-96
2022/09/27 13:41:14;;;;;;;;;;;10.00;99.90;;;;;;5095218;22;19917;-68
2022/09/27 13:43:47;;;;;;;;;;;9.90;99.90;;;;;;5085838;28;19924;-67
2022/09/27 13:46:16;;;;;;;;;;;10.00;99.90;;;;;;5085817;28;19920;-67
2022/09/27 13:48:48;;;;;;;;;;;9.80;99.90;;;;;;5085781;28;19927;-67
2022/09/27 13:51:19;;;;;;;;;;;9.80;99.90;;;;;;5077259;28;20168;-67
2022/09/27 13:53:56;;;;;;;;;;;9.60;99.90;;;;;;5066027;28;19921;-67
2022/09/27 13:56:37;;;;;;;;;;;9.50;99.90;;;;;;5065322;28;20208;-67
2022/09/27 13:59:08;;;;;;;;;;;9.50;99.90;;;;;;5065368;28;19921;-67
2022/09/27 14:01:36;;;;;;;;;;;9.60;99.90;;;;;;5065793;28;19920;-67
2022/09/27 14:04:05;;;;;;;;;;;9.60;99.90;;;;;;5065649;28;19988;-68
2022/09/27 14:06:34;;;;;;;;;;;9.60;99.90;;;;;;5065316;28;20227;-68
2022/09/27 14:09:03;;;;;;;;;;;9.60;99.90;;;;;;5065668;28;19928;-68
2022/09/27 14:11:33;;;;;;;;;;;9.70;99.90;;;;;;5065725;28;20113;-67
2022/09/27 14:14:01;;;;;;;;;;;9.80;99.90;;;;;;5065372;28;19932;-67
2022/09/27 14:16:31;;;;;;;;;;;9.90;99.90;;;;;;5064910;28;19932;-67
2022/09/27 14:18:58;;;;;;;;;;;10.00;99.90;;;;;;5065607;28;19979;-68
2022/09/27 14:21:28;;;;;;;;;;;10.00;99.90;;;;;;5061975;28;19984;-67
2022/09/27 14:24:10;;;;;;;;;;;10.10;99.90;;;;;;5045446;28;19967;-68
2022/09/27 14:26:36;;;;;;;;;;;10.10;99.90;;;;;;5046628;28;20137;-66
2022/09/27 14:29:15;;;;;;;;;;;9.90;99.90;;;;;;5065152;28;19984;-67
2022/09/27 14:31:43;;;;;;;;;;;9.90;99.90;;;;;;5065140;28;19921;-68
2022/09/27 14:34:11;;;;;;;;;;;9.80;99.90;;;;;;5065160;28;19921;-67
2022/09/27 14:39:23;;;;;;;;;;;9.80;99.90;;;;;;5064931;28;19923;-67
2022/09/27 14:41:50;;;;;;;;;;;9.80;99.90;;;;;;5064595;28;19921;-67
2022/09/27 14:44:18;;;;;;;;;;;9.80;99.90;;;;;;5064893;28;19920;-67
2022/09/27 14:46:46;;;;;;;;;;;9.80;99.90;;;;;;5064497;28;19927;-69
2022/09/27 14:49:23;;;;;;;;;;;9.90;99.90;;;;;;5064498;28;19959;-67
2022/09/27 14:51:53;;;;;;;;;;;10.10;99.90;;;;;;5064701;28;20007;-67